sensor_id;sensor_type;location;lat;lon;timestamp;pressure;altitude;pressure_sealevel;temperature;humidity
75536;BME280;64119;52.070;20.804;2023-06-26T00:02:29;100350.38;;;14.16;77.76
75536;BME280;64119;52.070;20.804;2023-06-26T00:05:00;100352.36;;;14.12;79.04
75536;BME280;64119;52.070;20.804;2023-06-26T00:07:30;100351.60;;;14.09;78.03
75536;BME280;64119;52.070;20.804;2023-06-26T00:09:58;100352.07;;;14.05;77.99
75536;BME280;64119;52.070;20.804;2023-06-26T00:12:26;100353.02;;;14.02;78.06
75536;BME280;64119;52.070;20.804;2023-06-26T00:14:54;100355.04;;;13.99;78.08
75536;BME280;64119;52.070;20.804;2023-06-26T00:17:22;100356.70;;;13.96;78.47
75536;BME280;64119;52.070;20.804;2023-06-26T00:19:50;100358.96;;;13.93;78.25
75536;BME280;64119;52.070;20.804;2023-06-26T00:22:19;100359.31;;;13.90;78.28
75536;BME280;64119;52.070;20.804;2023-06-26T00:24:46;100355.95;;;13.87;78.23
75536;BME280;64119;52.070;20.804;2023-06-26T00:27:14;100360.13;;;13.85;78.38
75536;BME280;64119;52.070;20.804;2023-06-26T00:29:47;100360.08;;;13.82;79.14
75536;BME280;64119;52.070;20.804;2023-06-26T00:32:15;100363.27;;;13.80;79.64
75536;BME280;64119;52.070;20.804;2023-06-26T00:34:43;100362.70;;;13.76;79.30
75536;BME280;64119;52.070;20.804;2023-06-26T00:37:11;100361.60;;;13.74;79.27
75536;BME280;64119;52.070;20.804;2023-06-26T00:39:39;100358.29;;;13.72;79.72
75536;BME280;64119;52.070;20.804;2023-06-26T00:42:08;100355.22;;;13.71;79.43
75536;BME280;64119;52.070;20.804;2023-06-26T00:44:36;100358.55;;;13.69;80.86
75536;BME280;64119;52.070;20.804;2023-06-26T00:47:04;100357.27;;;13.65;80.59
75536;BME280;64119;52.070;20.804;2023-06-26T00:49:33;100359.98;;;13.64;80.25
75536;BME280;64119;52.070;20.804;2023-06-26T00:52:00;100357.94;;;13.60;80.07
75536;BME280;64119;52.070;20.804;2023-06-26T00:54:31;100355.08;;;13.55;81.35
75536;BME280;64119;52.070;20.804;2023-06-26T00:57:00;100353.59;;;13.52;79.42
75536;BME280;64119;52.070;20.804;2023-06-26T00:59:28;100355.34;;;13.51;80.10
75536;BME280;64119;52.070;20.804;2023-06-26T01:01:56;100355.38;;;13.49;79.55
75536;BME280;64119;52.070;20.804;2023-06-26T01:04:24;100355.54;;;13.48;79.78
75536;BME280;64119;52.070;20.804;2023-06-26T01:06:55;100356.35;;;13.46;80.86
75536;BME280;64119;52.070;20.804;2023-06-26T01:09:25;100351.58;;;13.43;80.04
75536;BME280;64119;52.070;20.804;2023-06-26T01:11:54;100348.38;;;13.42;80.69
75536;BME280;64119;52.070;20.804;2023-06-26T01:14:23;100344.23;;;13.40;80.67
75536;BME280;64119;52.070;20.804;2023-06-26T01:16:51;100346.28;;;13.38;80.24
75536;BME280;64119;52.070;20.804;2023-06-26T01:19:24;100340.13;;;13.36;81.51
75536;BME280;64119;52.070;20.804;2023-06-26T01:24:33;100337.89;;;13.30;81.72
75536;BME280;64119;52.070;20.804;2023-06-26T01:27:04;100332.52;;;13.27;82.34
75536;BME280;64119;52.070;20.804;2023-06-26T01:29:33;100335.19;;;13.25;82.27
75536;BME280;64119;52.070;20.804;2023-06-26T01:32:02;100335.27;;;13.22;82.95
75536;BME280;64119;52.070;20.804;2023-06-26T01:34:30;100331.83;;;13.18;82.35
75536;BME280;64119;52.070;20.804;2023-06-26T01:36:58;100327.33;;;13.16;82.23
75536;BME280;64119;52.070;20.804;2023-06-26T01:39:26;100326.34;;;13.14;81.76
75536;BME280;64119;52.070;20.804;2023-06-26T01:41:53;100327.44;;;13.13;81.57
75536;BME280;64119;52.070;20.804;2023-06-26T01:44:35;100326.30;;;13.11;80.91
75536;BME280;64119;52.070;20.804;2023-06-26T01:47:06;100326.50;;;13.09;81.33
75536;BME280;64119;52.070;20.804;2023-06-26T01:52:25;100327.92;;;13.05;80.59
75536;BME280;64119;52.070;20.804;2023-06-26T01:57:22;100326.22;;;12.99;82.85
75536;BME280;64119;52.070;20.804;2023-06-26T01:59:51;100320.57;;;12.96;81.30
75536;BME280;64119;52.070;20.804;2023-06-26T02:02:19;100321.27;;;12.94;81.46
75536;BME280;64119;52.070;20.804;2023-06-26T02:04:47;100324.59;;;12.93;81.53
75536;BME280;64119;52.070;20.804;2023-06-26T02:07:15;100320.48;;;12.91;82.07
75536;BME280;64119;52.070;20.804;2023-06-26T02:09:43;100318.64;;;12.87;82.61
75536;BME280;64119;52.070;20.804;2023-06-26T02:12:11;100323.17;;;12.85;83.58
75536;BME280;64119;52.070;20.804;2023-06-26T02:14:39;100322.86;;;12.84;82.33
75536;BME280;64119;52.070;20.804;2023-06-26T02:17:07;100319.46;;;12.81;83.52
75536;BME280;64119;52.070;20.804;2023-06-26T02:19:36;100316.59;;;12.79;83.79
75536;BME280;64119;52.070;20.804;2023-06-26T02:22:04;100314.73;;;12.78;83.06
75536;BME280;64119;52.070;20.804;2023-06-26T02:24:32;100312.24;;;12.77;83.07
75536;BME280;64119;52.070;20.804;2023-06-26T02:27:01;100311.92;;;12.75;83.06
75536;BME280;64119;52.070;20.804;2023-06-26T02:29:29;100309.66;;;12.74;82.97
75536;BME280;64119;52.070;20.804;2023-06-26T02:31:57;100306.30;;;12.72;82.65
75536;BME280;64119;52.070;20.804;2023-06-26T02:34:24;100306.50;;;12.72;82.77
75536;BME280;64119;52.070;20.804;2023-06-26T02:36:53;100304.30;;;12.71;82.56
75536;BME280;64119;52.070;20.804;2023-06-26T02:39:24;100304.17;;;12.71;83.37
75536;BME280;64119;52.070;20.804;2023-06-26T02:41:52;100304.47;;;12.70;83.21
75536;BME280;64119;52.070;20.804;2023-06-26T02:44:20;100301.72;;;12.69;84.65
75536;BME280;64119;52.070;20.804;2023-06-26T02:46:48;100303.30;;;12.67;84.24
75536;BME280;64119;52.070;20.804;2023-06-26T02:49:16;100308.14;;;12.68;82.22
75536;BME280;64119;52.070;20.804;2023-06-26T02:51:48;100308.52;;;12.69;82.71
75536;BME280;64119;52.070;20.804;2023-06-26T02:54:21;100309.30;;;12.69;83.70
75536;BME280;64119;52.070;20.804;2023-06-26T02:56:51;100312.33;;;12.69;84.25
75536;BME280;64119;52.070;20.804;2023-06-26T02:59:22;100312.33;;;12.68;83.78
75536;BME280;64119;52.070;20.804;2023-06-26T03:01:51;100308.23;;;12.70;83.93
75536;BME280;64119;52.070;20.804;2023-06-26T03:04:20;100309.79;;;12.71;83.23
75536;BME280;64119;52.070;20.804;2023-06-26T03:06:49;100308.48;;;12.73;83.53
75536;BME280;64119;52.070;20.804;2023-06-26T03:09:17;100305.48;;;12.74;84.45
75536;BME280;64119;52.070;20.804;2023-06-26T03:11:45;100303.86;;;12.76;84.67
75536;BME280;64119;52.070;20.804;2023-06-26T03:14:13;100306.27;;;12.79;83.05
75536;BME280;64119;52.070;20.804;2023-06-26T03:16:42;100309.11;;;12.83;82.71
75536;BME280;64119;52.070;20.804;2023-06-26T03:19:11;100309.87;;;12.86;82.88
75536;BME280;64119;52.070;20.804;2023-06-26T03:22:11;100311.18;;;12.91;83.39
75536;BME280;64119;52.070;20.804;2023-06-26T03:24:39;100310.33;;;12.95;83.24
75536;BME280;64119;52.070;20.804;2023-06-26T03:27:07;100307.98;;;12.99;83.10
75536;BME280;64119;52.070;20.804;2023-06-26T03:29:37;100310.05;;;13.05;83.49
75536;BME280;64119;52.070;20.804;2023-06-26T03:32:05;100312.50;;;13.09;83.02
75536;BME280;64119;52.070;20.804;2023-06-26T03:34:34;100316.39;;;13.16;82.90
75536;BME280;64119;52.070;20.804;2023-06-26T03:37:02;100316.66;;;13.21;82.13
75536;BME280;64119;52.070;20.804;2023-06-26T03:39:30;100319.17;;;13.28;82.96
75536;BME280;64119;52.070;20.804;2023-06-26T03:41:57;100316.57;;;13.34;82.92
75536;BME280;64119;52.070;20.804;2023-06-26T03:44:28;100317.13;;;13.41;82.25
75536;BME280;64119;52.070;20.804;2023-06-26T03:46:55;100319.91;;;13.48;82.42
75536;BME280;64119;52.070;20.804;2023-06-26T03:49:23;100319.56;;;13.55;81.86
75536;BME280;64119;52.070;20.804;2023-06-26T03:51:52;100321.30;;;13.63;81.50
75536;BME280;64119;52.070;20.804;2023-06-26T03:54:20;100321.66;;;13.71;82.26
75536;BME280;64119;52.070;20.804;2023-06-26T03:56:48;100322.44;;;13.79;81.50
75536;BME280;64119;52.070;20.804;2023-06-26T03:59:17;100317.45;;;13.88;81.22
75536;BME280;64119;52.070;20.804;2023-06-26T04:01:45;100319.40;;;13.97;81.57
75536;BME280;64119;52.070;20.804;2023-06-26T04:04:14;100316.19;;;14.07;81.71
75536;BME280;64119;52.070;20.804;2023-06-26T04:06:41;100317.14;;;14.17;81.58
75536;BME280;64119;52.070;20.804;2023-06-26T04:09:09;100319.71;;;14.28;81.63
75536;BME280;64119;52.070;20.804;2023-06-26T04:11:37;100321.16;;;14.39;81.46
75536;BME280;64119;52.070;20.804;2023-06-26T04:14:05;100319.24;;;14.50;81.51
75536;BME280;64119;52.070;20.804;2023-06-26T04:16:32;100320.20;;;14.61;81.83
75536;BME280;64119;52.070;20.804;2023-06-26T04:19:00;100315.59;;;14.74;81.62
75536;BME280;64119;52.070;20.804;2023-06-26T04:21:29;100317.11;;;14.85;80.95
75536;BME280;64119;52.070;20.804;2023-06-26T04:23:57;100319.85;;;14.97;80.95
75536;BME280;64119;52.070;20.804;2023-06-26T04:26:25;100323.40;;;15.09;80.30
75536;BME280;64119;52.070;20.804;2023-06-26T04:28:53;100320.71;;;15.22;80.29
75536;BME280;64119;52.070;20.804;2023-06-26T04:31:21;100319.31;;;15.35;80.49
75536;BME280;64119;52.070;20.804;2023-06-26T04:33:49;100320.02;;;15.49;80.21
75536;BME280;64119;52.070;20.804;2023-06-26T04:36:18;100321.52;;;15.62;80.15
75536;BME280;64119;52.070;20.804;2023-06-26T04:38:46;100321.64;;;15.75;79.79
75536;BME280;64119;52.070;20.804;2023-06-26T04:41:15;100321.60;;;15.89;79.76
75536;BME280;64119;52.070;20.804;2023-06-26T04:43:43;100317.58;;;16.03;79.57
75536;BME280;64119;52.070;20.804;2023-06-26T04:46:11;100316.00;;;16.17;79.76
75536;BME280;64119;52.070;20.804;2023-06-26T04:48:39;100314.66;;;16.31;79.47
75536;BME280;64119;52.070;20.804;2023-06-26T04:51:06;100312.98;;;16.45;78.95
75536;BME280;64119;52.070;20.804;2023-06-26T04:53:34;100311.14;;;16.58;78.96
75536;BME280;64119;52.070;20.804;2023-06-26T04:56:02;100313.80;;;16.72;78.67
75536;BME280;64119;52.070;20.804;2023-06-26T05:02:03;100313.56;;;17.08;78.15
75536;BME280;64119;52.070;20.804;2023-06-26T05:04:31;100310.66;;;17.21;77.99
75536;BME280;64119;52.070;20.804;2023-06-26T05:06:59;100311.76;;;17.36;77.78
75536;BME280;64119;52.070;20.804;2023-06-26T05:09:27;100312.21;;;17.51;77.39
75536;BME280;64119;52.070;20.804;2023-06-26T05:11:55;100312.55;;;17.65;77.13
75536;BME280;64119;52.070;20.804;2023-06-26T05:14:23;100312.65;;;17.80;76.79
75536;BME280;64119;52.070;20.804;2023-06-26T05:16:52;100314.05;;;17.96;76.91
75536;BME280;64119;52.070;20.804;2023-06-26T05:19:20;100310.70;;;18.13;76.37
75536;BME280;64119;52.070;20.804;2023-06-26T05:21:48;100305.85;;;18.29;76.20
75536;BME280;64119;52.070;20.804;2023-06-26T05:24:16;100304.45;;;18.44;75.84
75536;BME280;64119;52.070;20.804;2023-06-26T05:26:44;100300.25;;;18.61;75.44
75536;BME280;64119;52.070;20.804;2023-06-26T05:29:12;100301.87;;;18.77;75.09
75536;BME280;64119;52.070;20.804;2023-06-26T05:31:41;100300.08;;;18.92;74.61
75536;BME280;64119;52.070;20.804;2023-06-26T05:34:10;100303.95;;;19.10;74.29
75536;BME280;64119;52.070;20.804;2023-06-26T05:36:41;100298.20;;;19.30;73.74
75536;BME280;64119;52.070;20.804;2023-06-26T05:39:09;100299.98;;;19.48;73.22
75536;BME280;64119;52.070;20.804;2023-06-26T05:41:37;100296.57;;;19.64;72.71
75536;BME280;64119;52.070;20.804;2023-06-26T05:44:05;100298.39;;;19.80;71.86
75536;BME280;64119;52.070;20.804;2023-06-26T05:46:35;100296.01;;;19.97;71.13
75536;BME280;64119;52.070;20.804;2023-06-26T05:49:03;100293.23;;;20.13;70.59
75536;BME280;64119;52.070;20.804;2023-06-26T05:51:31;100288.89;;;20.27;70.13
75536;BME280;64119;52.070;20.804;2023-06-26T05:53:59;100289.70;;;20.41;69.91
75536;BME280;64119;52.070;20.804;2023-06-26T05:56:28;100293.88;;;20.56;69.98
75536;BME280;64119;52.070;20.804;2023-06-26T05:58:57;100289.55;;;20.71;69.30
75536;BME280;64119;52.070;20.804;2023-06-26T06:01:25;100286.16;;;20.86;68.21
75536;BME280;64119;52.070;20.804;2023-06-26T06:03:52;100285.09;;;21.00;67.03
75536;BME280;64119;52.070;20.804;2023-06-26T06:06:20;100284.92;;;21.16;67.38
75536;BME280;64119;52.070;20.804;2023-06-26T06:08:48;100288.42;;;21.31;65.56
75536;BME280;64119;52.070;20.804;2023-06-26T06:11:16;100285.80;;;21.44;65.95
75536;BME280;64119;52.070;20.804;2023-06-26T06:13:44;100280.70;;;21.57;65.17
75536;BME280;64119;52.070;20.804;2023-06-26T06:16:12;100282.27;;;21.70;65.07
75536;BME280;64119;52.070;20.804;2023-06-26T06:18:40;100285.73;;;21.83;65.21
75536;BME280;64119;52.070;20.804;2023-06-26T06:21:08;100289.86;;;21.95;63.92
75536;BME280;64119;52.070;20.804;2023-06-26T06:23:37;100284.98;;;22.07;62.87
75536;BME280;64119;52.070;20.804;2023-06-26T06:26:05;100281.67;;;22.19;62.54
75536;BME280;64119;52.070;20.804;2023-06-26T06:28:33;100283.48;;;22.31;59.91
75536;BME280;64119;52.070;20.804;2023-06-26T06:31:02;100279.55;;;22.39;56.70
75536;BME280;64119;52.070;20.804;2023-06-26T06:33:30;100281.84;;;22.49;59.11
75536;BME280;64119;52.070;20.804;2023-06-26T06:35:58;100279.63;;;22.59;58.55
75536;BME280;64119;52.070;20.804;2023-06-26T06:38:26;100277.35;;;22.72;59.65
75536;BME280;64119;52.070;20.804;2023-06-26T06:40:54;100276.33;;;22.86;59.65
75536;BME280;64119;52.070;20.804;2023-06-26T06:43:21;100275.52;;;23.00;59.01
75536;BME280;64119;52.070;20.804;2023-06-26T06:45:49;100276.85;;;23.14;58.40
75536;BME280;64119;52.070;20.804;2023-06-26T06:48:17;100275.75;;;23.26;56.89
75536;BME280;64119;52.070;20.804;2023-06-26T06:50:45;100275.91;;;23.35;56.23
75536;BME280;64119;52.070;20.804;2023-06-26T06:53:12;100277.62;;;23.48;56.55
75536;BME280;64119;52.070;20.804;2023-06-26T06:55:41;100277.29;;;23.55;53.13
75536;BME280;64119;52.070;20.804;2023-06-26T06:58:10;100274.94;;;23.58;54.57
75536;BME280;64119;52.070;20.804;2023-06-26T07:00:38;100275.63;;;23.64;54.29
75536;BME280;64119;52.070;20.804;2023-06-26T07:03:06;100275.92;;;23.73;54.64
75536;BME280;64119;52.070;20.804;2023-06-26T07:05:34;100275.82;;;23.85;52.92
75536;BME280;64119;52.070;20.804;2023-06-26T07:08:02;100272.36;;;23.97;53.95
75536;BME280;64119;52.070;20.804;2023-06-26T07:10:31;100271.50;;;24.08;53.34
75536;BME280;64119;52.070;20.804;2023-06-26T07:12:59;100272.00;;;24.17;52.75
75536;BME280;64119;52.070;20.804;2023-06-26T07:15:27;100272.83;;;24.25;51.43
75536;BME280;64119;52.070;20.804;2023-06-26T07:17:55;100271.71;;;24.30;51.31
75536;BME280;64119;52.070;20.804;2023-06-26T07:20:23;100268.73;;;24.41;51.75
75536;BME280;64119;52.070;20.804;2023-06-26T07:22:52;100263.66;;;24.52;51.42
75536;BME280;64119;52.070;20.804;2023-06-26T07:25:20;100262.52;;;24.64;51.69
75536;BME280;64119;52.070;20.804;2023-06-26T07:27:48;100267.52;;;24.79;51.33
75536;BME280;64119;52.070;20.804;2023-06-26T07:30:16;100265.01;;;24.89;49.72
75536;BME280;64119;52.070;20.804;2023-06-26T07:32:45;100266.60;;;24.99;48.61
75536;BME280;64119;52.070;20.804;2023-06-26T07:35:12;100260.98;;;25.07;47.82
75536;BME280;64119;52.070;20.804;2023-06-26T07:37:42;100259.48;;;25.12;48.77
75536;BME280;64119;52.070;20.804;2023-06-26T07:40:10;100258.73;;;25.15;47.26
75536;BME280;64119;52.070;20.804;2023-06-26T07:42:38;100260.69;;;25.21;46.50
75536;BME280;64119;52.070;20.804;2023-06-26T07:45:07;100260.79;;;25.28;47.44
75536;BME280;64119;52.070;20.804;2023-06-26T07:47:39;100262.35;;;25.39;46.16
75536;BME280;64119;52.070;20.804;2023-06-26T07:50:08;100262.10;;;25.50;47.82
75536;BME280;64119;52.070;20.804;2023-06-26T07:52:36;100259.77;;;25.63;46.63
75536;BME280;64119;52.070;20.804;2023-06-26T07:55:04;100255.73;;;25.68;45.10
75536;BME280;64119;52.070;20.804;2023-06-26T07:57:32;100256.67;;;25.72;44.34
75536;BME280;64119;52.070;20.804;2023-06-26T08:00:00;100258.82;;;25.75;44.68
75536;BME280;64119;52.070;20.804;2023-06-26T08:02:28;100254.83;;;25.80;44.15
75536;BME280;64119;52.070;20.804;2023-06-26T08:04:56;100253.70;;;25.85;43.87
75536;BME280;64119;52.070;20.804;2023-06-26T08:07:24;100254.48;;;25.95;44.00
75536;BME280;64119;52.070;20.804;2023-06-26T08:09:52;100256.34;;;26.05;44.27
75536;BME280;64119;52.070;20.804;2023-06-26T08:12:20;100257.94;;;26.09;42.91
75536;BME280;64119;52.070;20.804;2023-06-26T08:14:48;100254.95;;;26.18;42.55
75536;BME280;64119;52.070;20.804;2023-06-26T08:17:16;100254.99;;;26.34;44.17
75536;BME280;64119;52.070;20.804;2023-06-26T08:19:43;100253.42;;;26.48;42.78
75536;BME280;64119;52.070;20.804;2023-06-26T08:22:11;100250.90;;;26.60;41.85
75536;BME280;64119;52.070;20.804;2023-06-26T08:24:39;100247.15;;;26.72;41.71
75536;BME280;64119;52.070;20.804;2023-06-26T08:27:07;100249.23;;;26.85;41.43
75536;BME280;64119;52.070;20.804;2023-06-26T08:29:35;100245.01;;;26.97;41.56
75536;BME280;64119;52.070;20.804;2023-06-26T08:32:03;100243.29;;;27.05;39.90
75536;BME280;64119;52.070;20.804;2023-06-26T08:34:31;100242.08;;;27.12;40.07
75536;BME280;64119;52.070;20.804;2023-06-26T08:36:59;100241.51;;;27.22;41.16
75536;BME280;64119;52.070;20.804;2023-06-26T08:39:27;100240.91;;;27.25;40.16
75536;BME280;64119;52.070;20.804;2023-06-26T08:41:55;100241.83;;;27.30;40.47
75536;BME280;64119;52.070;20.804;2023-06-26T08:44:24;100243.27;;;27.38;41.82
75536;BME280;64119;52.070;20.804;2023-06-26T08:46:52;100245.55;;;27.48;40.40
75536;BME280;64119;52.070;20.804;2023-06-26T08:49:47;100240.75;;;27.21;39.04
75536;BME280;64119;52.070;20.804;2023-06-26T08:52:30;100243.43;;;26.87;38.31
75536;BME280;64119;52.070;20.804;2023-06-26T08:54:59;100239.52;;;27.05;39.13
75536;BME280;64119;52.070;20.804;2023-06-26T08:57:30;100239.30;;;27.32;39.38
75536;BME280;64119;52.070;20.804;2023-06-26T08:59:59;100236.16;;;27.57;39.41
75536;BME280;64119;52.070;20.804;2023-06-26T09:02:28;100230.71;;;27.86;40.44
75536;BME280;64119;52.070;20.804;2023-06-26T09:04:56;100231.20;;;28.02;38.39
75536;BME280;64119;52.070;20.804;2023-06-26T09:07:24;100232.91;;;27.95;37.34
75536;BME280;64119;52.070;20.804;2023-06-26T09:09:52;100232.02;;;27.71;36.68
75536;BME280;64119;52.070;20.804;2023-06-26T09:12:20;100231.27;;;27.51;37.60
75536;BME280;64119;52.070;20.804;2023-06-26T09:14:49;100227.65;;;27.83;39.08
75536;BME280;64119;52.070;20.804;2023-06-26T09:17:17;100228.57;;;28.26;39.75
75536;BME280;64119;52.070;20.804;2023-06-26T09:19:46;100220.81;;;28.47;37.86
75536;BME280;64119;52.070;20.804;2023-06-26T09:22:14;100228.70;;;28.34;36.09
75536;BME280;64119;52.070;20.804;2023-06-26T09:24:43;100229.31;;;28.13;37.02
75536;BME280;64119;52.070;20.804;2023-06-26T09:27:11;100226.85;;;27.83;37.56
75536;BME280;64119;52.070;20.804;2023-06-26T09:29:39;100223.48;;;27.50;36.60
75536;BME280;64119;52.070;20.804;2023-06-26T09:32:10;100224.72;;;27.22;37.78
75536;BME280;64119;52.070;20.804;2023-06-26T09:34:41;100222.87;;;27.59;37.91
75536;BME280;64119;52.070;20.804;2023-06-26T09:37:13;100213.98;;;28.31;36.93
75536;BME280;64119;52.070;20.804;2023-06-26T09:39:41;100211.00;;;29.03;35.18
75536;BME280;64119;52.070;20.804;2023-06-26T09:42:09;100210.70;;;29.59;33.12
75536;BME280;64119;52.070;20.804;2023-06-26T09:44:48;100211.23;;;29.73;33.84
75536;BME280;64119;52.070;20.804;2023-06-26T09:47:18;100212.46;;;30.33;33.81
75536;BME280;64119;52.070;20.804;2023-06-26T09:49:46;100206.29;;;30.89;33.45
75536;BME280;64119;52.070;20.804;2023-06-26T09:52:15;100204.33;;;31.47;30.63
75536;BME280;64119;52.070;20.804;2023-06-26T09:54:44;100205.83;;;32.00;30.78
75536;BME280;64119;52.070;20.804;2023-06-26T09:57:17;100209.14;;;32.46;30.92
75536;BME280;64119;52.070;20.804;2023-06-26T09:59:45;100205.98;;;32.50;29.18
75536;BME280;64119;52.070;20.804;2023-06-26T10:02:13;100200.45;;;32.71;28.52
75536;BME280;64119;52.070;20.804;2023-06-26T10:04:41;100200.45;;;33.09;30.46
75536;BME280;64119;52.070;20.804;2023-06-26T10:07:14;100193.80;;;33.52;27.18
75536;BME280;64119;52.070;20.804;2023-06-26T10:09:43;100196.95;;;33.82;28.20
75536;BME280;64119;52.070;20.804;2023-06-26T10:12:19;100192.59;;;34.23;26.84
75536;BME280;64119;52.070;20.804;2023-06-26T10:14:47;100183.92;;;34.84;27.15
75536;BME280;64119;52.070;20.804;2023-06-26T10:17:19;100180.52;;;35.42;26.29
75536;BME280;64119;52.070;20.804;2023-06-26T10:19:49;100179.04;;;35.90;25.71
75536;BME280;64119;52.070;20.804;2023-06-26T10:22:21;100173.02;;;36.07;24.53
75536;BME280;64119;52.070;20.804;2023-06-26T10:24:55;100169.85;;;36.49;24.70
75536;BME280;64119;52.070;20.804;2023-06-26T10:27:33;100167.29;;;36.77;23.50
75536;BME280;64119;52.070;20.804;2023-06-26T10:30:05;100163.50;;;36.68;22.56
75536;BME280;64119;52.070;20.804;2023-06-26T10:32:36;100164.68;;;36.72;22.76
75536;BME280;64119;52.070;20.804;2023-06-26T10:35:06;100163.03;;;36.73;21.96
75536;BME280;64119;52.070;20.804;2023-06-26T10:40:08;100153.55;;;36.43;21.44
75536;BME280;64119;52.070;20.804;2023-06-26T10:42:38;100145.45;;;36.97;21.97
75536;BME280;64119;52.070;20.804;2023-06-26T10:47:40;100142.31;;;37.03;20.63
75536;BME280;64119;52.070;20.804;2023-06-26T10:50:20;100144.00;;;36.78;20.31
75536;BME280;64119;52.070;20.804;2023-06-26T10:56:00;100141.43;;;36.63;20.63
75536;BME280;64119;52.070;20.804;2023-06-26T11:03:59;100127.31;;;37.44;20.44
75536;BME280;64119;52.070;20.804;2023-06-26T11:06:30;100122.70;;;37.37;21.65
75536;BME280;64119;52.070;20.804;2023-06-26T11:14:32;100121.29;;;38.07;20.17
75536;BME280;64119;52.070;20.804;2023-06-26T11:17:03;100116.59;;;38.17;19.48
75536;BME280;64119;52.070;20.804;2023-06-26T11:19:31;100112.54;;;38.25;19.50
75536;BME280;64119;52.070;20.804;2023-06-26T11:22:02;100106.95;;;38.39;19.61
75536;BME280;64119;52.070;20.804;2023-06-26T11:24:30;100102.27;;;38.13;19.87
75536;BME280;64119;52.070;20.804;2023-06-26T11:27:02;100100.66;;;37.29;19.68
75536;BME280;64119;52.070;20.804;2023-06-26T11:29:31;100101.34;;;36.19;21.41
75536;BME280;64119;52.070;20.804;2023-06-26T11:32:01;100100.14;;;35.17;21.93
75536;BME280;64119;52.070;20.804;2023-06-26T11:34:33;100099.98;;;34.88;22.71
75536;BME280;64119;52.070;20.804;2023-06-26T11:37:01;100098.45;;;34.93;22.25
75536;BME280;64119;52.070;20.804;2023-06-26T11:39:29;100093.91;;;34.82;20.40
75536;BME280;64119;52.070;20.804;2023-06-26T11:41:57;100095.70;;;34.87;22.32
75536;BME280;64119;52.070;20.804;2023-06-26T11:44:30;100089.90;;;35.01;22.93
75536;BME280;64119;52.070;20.804;2023-06-26T11:46:59;100089.16;;;34.85;20.63
75536;BME280;64119;52.070;20.804;2023-06-26T11:49:28;100090.46;;;34.66;21.45
75536;BME280;64119;52.070;20.804;2023-06-26T11:51:56;100089.91;;;34.88;22.23
75536;BME280;64119;52.070;20.804;2023-06-26T11:54:25;100092.00;;;35.25;22.35
75536;BME280;64119;52.070;20.804;2023-06-26T11:56:55;100088.14;;;35.22;20.81
75536;BME280;64119;52.070;20.804;2023-06-26T11:59:36;100085.83;;;35.38;20.88
75536;BME280;64119;52.070;20.804;2023-06-26T12:02:09;100081.34;;;35.45;20.76
75536;BME280;64119;52.070;20.804;2023-06-26T12:04:40;100078.66;;;35.35;21.38
75536;BME280;64119;52.070;20.804;2023-06-26T12:07:09;100072.61;;;35.15;22.57
75536;BME280;64119;52.070;20.804;2023-06-26T12:09:46;100070.39;;;35.35;22.11
75536;BME280;64119;52.070;20.804;2023-06-26T12:12:16;100065.05;;;35.00;22.23
75536;BME280;64119;52.070;20.804;2023-06-26T12:14:46;100062.08;;;34.74;23.74
75536;BME280;64119;52.070;20.804;2023-06-26T12:17:14;100060.45;;;34.51;23.53
75536;BME280;64119;52.070;20.804;2023-06-26T12:19:46;100053.82;;;34.27;22.86
75536;BME280;64119;52.070;20.804;2023-06-26T12:22:18;100052.98;;;33.88;22.81
75536;BME280;64119;52.070;20.804;2023-06-26T12:24:48;100055.80;;;33.72;22.80
75536;BME280;64119;52.070;20.804;2023-06-26T12:27:18;100053.52;;;33.35;22.49
75536;BME280;64119;52.070;20.804;2023-06-26T12:29:53;100051.20;;;32.94;23.42
75536;BME280;64119;52.070;20.804;2023-06-26T12:32:23;100052.09;;;32.57;23.83
75536;BME280;64119;52.070;20.804;2023-06-26T12:34:52;100050.70;;;32.26;24.21
75536;BME280;64119;52.070;20.804;2023-06-26T12:37:20;100052.92;;;31.88;24.97
75536;BME280;64119;52.070;20.804;2023-06-26T12:39:56;100054.92;;;31.59;25.42
75536;BME280;64119;52.070;20.804;2023-06-26T12:42:26;100051.10;;;31.56;25.85
75536;BME280;64119;52.070;20.804;2023-06-26T12:44:55;100046.48;;;31.71;26.43
75536;BME280;64119;52.070;20.804;2023-06-26T12:47:28;100036.42;;;31.85;25.94
75536;BME280;64119;52.070;20.804;2023-06-26T12:49:58;100032.11;;;31.91;24.34
75536;BME280;64119;52.070;20.804;2023-06-26T12:52:32;100033.50;;;31.65;24.83
75536;BME280;64119;52.070;20.804;2023-06-26T12:55:00;100034.20;;;31.40;25.84
75536;BME280;64119;52.070;20.804;2023-06-26T12:57:28;100027.29;;;31.31;27.25
75536;BME280;64119;52.070;20.804;2023-06-26T12:59:55;100023.73;;;31.34;28.47
75536;BME280;64119;52.070;20.804;2023-06-26T13:02:23;100024.21;;;31.29;27.20
75536;BME280;64119;52.070;20.804;2023-06-26T13:04:51;100022.83;;;31.36;28.20
75536;BME280;64119;52.070;20.804;2023-06-26T13:07:19;100014.85;;;31.50;27.63
75536;BME280;64119;52.070;20.804;2023-06-26T13:09:47;100014.73;;;31.43;27.51
75536;BME280;64119;52.070;20.804;2023-06-26T13:12:16;100015.33;;;31.30;27.41
75536;BME280;64119;52.070;20.804;2023-06-26T13:14:44;100014.75;;;31.21;27.66
75536;BME280;64119;52.070;20.804;2023-06-26T13:17:12;100007.38;;;31.07;27.99
75536;BME280;64119;52.070;20.804;2023-06-26T13:19:40;100000.98;;;30.74;27.62
75536;BME280;64119;52.070;20.804;2023-06-26T13:22:08;100003.31;;;30.38;27.55